Terminal Aerodrome Forecast
Issued by NWS Blacksburg, VA

Current Version | Previous Version | Graphics & Text | Print | Product List | Glossary On
Versions: 1 2 3 4 5 6 7 8 9 10 11 12 13 14 15 16 17 18 19 20 21 22 23 24 25 26 27 28 29 30 31 32 33 34 35 36 37 38 39 40 41 42 43
000
FTUS41 KRNK 041127
TAFBLF
TAF
KBLF 041127Z 0412/0512 26004KT P6SM VCSH OVC012
     FM041600 29008KT P6SM BKN025
     FM041800 29008KT P6SM BKN040
     FM050100 29006KT 6SM -SHRA OVC020
     FM050300 27005KT 4SM -SHRA BR OVC011
     FM050600 29005KT 2SM -SHRA BR OVC007=

USA.gov is the U.S. government's official web portal to all federal, state and local government web resources and services.